EAG5501 KDTW-BGTL
Flight info
| Callsign | EAG5501 |
|---|---|
| Flight time | 5h 1m |
| Altitude | 35000 |
| Route | TRMML4 GNZOE DCT APN/N0475F350 DCT SASOB DCT TEXEX/N0478F370 DCT AGBIX DCT SAVAT DCT YUX DCT YIO/M082F370 DCT THT |
| Aircraft | A343/H-SDE2E3FGHIJ4J5M1RWXY/LB1D1 |
Departure
| Time | 2026-04-21 13:07 |
|---|---|
| Airport | Detroit Metropolitan Wayne County Airport (KDTW) |
Arrival
| Time | 2026-04-21 18:08 |
|---|---|
| Airport | Pituffik Space Base (BGTL) |
| Time | Latitude | Longitude | Altitude | Speed | Heading |
|---|---|---|---|---|---|
| 2026-04-21 12:56 | 42.22898 | -83.34702 | 651 ft | 0 kts | 119° |
| 2026-04-21 13:01 | 42.22904 | -83.34719 | 668 ft | 4 kts | 109° |
| 2026-04-21 13:01 | 42.22907 | -83.34750 | 670 ft | 4 kts | 60° |
| 2026-04-21 13:02 | 42.22890 | -83.34766 | 653 ft | 3 kts | 354° |
| 2026-04-21 13:02 | 42.22886 | -83.34766 | 652 ft | 0 kts | 351° |
| 2026-04-21 13:04 | 42.22896 | -83.34768 | 652 ft | 4 kts | 351° |
| 2026-04-21 13:04 | 42.22933 | -83.34777 | 651 ft | 7 kts | 347° |
| 2026-04-21 13:04 | 42.22999 | -83.34797 | 650 ft | 12 kts | 347° |
| 2026-04-21 13:05 | 42.23043 | -83.34845 | 651 ft | 7 kts | 297° |
| 2026-04-21 13:05 | 42.23068 | -83.34911 | 650 ft | 13 kts | 298° |
| 2026-04-21 13:05 | 42.23100 | -83.35019 | 649 ft | 3 kts | 263° |
| 2026-04-21 13:05 | 42.23091 | -83.35028 | 649 ft | 2 kts | 216° |
| 2026-04-21 13:06 | 42.23083 | -83.35033 | 649 ft | 2 kts | 209° |
| 2026-04-21 13:06 | 42.23046 | -83.35058 | 649 ft | 20 kts | 206° |
| 2026-04-21 13:06 | 42.22869 | -83.35188 | 648 ft | 65 kts | 210° |
| 2026-04-21 13:06 | 42.22297 | -83.35608 | 652 ft | 123 kts | 208° |
| 2026-04-21 13:07 | 42.21392 | -83.36272 | 683 ft | 168 kts | 205° |
| 2026-04-21 13:07 | 42.20377 | -83.37029 | 1428 ft | 164 kts | 210° |
| 2026-04-21 13:07 | 42.19612 | -83.38137 | 2308 ft | 161 kts | 238° |
| 2026-04-21 13:07 | 42.19135 | -83.39450 | 3005 ft | 157 kts | 235° |
| 2026-04-21 13:08 | 42.18443 | -83.40669 | 3312 ft | 174 kts | 232° |
| 2026-04-21 13:08 | 42.17722 | -83.42074 | 3606 ft | 191 kts | 239° |
| 2026-04-21 13:08 | 42.17171 | -83.43829 | 3851 ft | 215 kts | 256° |
| 2026-04-21 13:08 | 42.17219 | -83.45902 | 4358 ft | 231 kts | 285° |
| 2026-04-21 13:09 | 42.18192 | -83.47674 | 5036 ft | 247 kts | 321° |
| 2026-04-21 13:09 | 42.19871 | -83.48344 | 5810 ft | 263 kts | 354° |
| 2026-04-21 13:09 | 42.21698 | -83.48156 | 6616 ft | 264 kts | 355° |
| 2026-04-21 13:09 | 42.23539 | -83.48116 | 7358 ft | 266 kts | 354° |
| 2026-04-21 13:10 | 42.25401 | -83.48107 | 8038 ft | 269 kts | 354° |
| 2026-04-21 13:10 | 42.27287 | -83.48104 | 8723 ft | 272 kts | 354° |
| 2026-04-21 13:10 | 42.29192 | -83.48102 | 9413 ft | 275 kts | 354° |
| 2026-04-21 13:10 | 42.31109 | -83.48102 | 10100 ft | 277 kts | 354° |
| 2026-04-21 13:11 | 42.33059 | -83.48103 | 10586 ft | 286 kts | 354° |
| 2026-04-21 13:11 | 42.35099 | -83.48109 | 10880 ft | 300 kts | 354° |
| 2026-04-21 13:11 | 42.37238 | -83.48114 | 11166 ft | 314 kts | 354° |
| 2026-04-21 13:11 | 42.39441 | -83.48116 | 11445 ft | 327 kts | 354° |
| 2026-04-21 13:12 | 42.41758 | -83.48117 | 11727 ft | 339 kts | 354° |
| 2026-04-21 13:12 | 42.44160 | -83.48117 | 12021 ft | 351 kts | 354° |
| 2026-04-21 13:12 | 42.46630 | -83.48116 | 12439 ft | 358 kts | 354° |
| 2026-04-21 13:12 | 42.49136 | -83.48112 | 12984 ft | 362 kts | 354° |
| 2026-04-21 13:13 | 42.51662 | -83.48109 | 13586 ft | 364 kts | 354° |
| 2026-04-21 13:13 | 42.54211 | -83.48107 | 14176 ft | 366 kts | 354° |
| 2026-04-21 13:13 | 42.56771 | -83.48106 | 14707 ft | 369 kts | 354° |
| 2026-04-21 13:13 | 42.59346 | -83.48105 | 15235 ft | 371 kts | 354° |
| 2026-04-21 13:14 | 42.61944 | -83.48105 | 15768 ft | 373 kts | 354° |
| 2026-04-21 13:14 | 42.64549 | -83.48105 | 16304 ft | 376 kts | 354° |
| 2026-04-21 13:14 | 42.67140 | -83.48105 | 16826 ft | 378 kts | 354° |
| 2026-04-21 13:14 | 42.69781 | -83.48106 | 17376 ft | 380 kts | 354° |
| 2026-04-21 13:15 | 42.72442 | -83.48105 | 17942 ft | 382 kts | 353° |
| 2026-04-21 13:15 | 42.75107 | -83.48105 | 18493 ft | 384 kts | 353° |
| 2026-04-21 13:15 | 42.77793 | -83.48106 | 18944 ft | 387 kts | 354° |
| 2026-04-21 13:15 | 42.80461 | -83.48107 | 19386 ft | 389 kts | 354° |
| 2026-04-21 13:16 | 42.83178 | -83.48107 | 19823 ft | 392 kts | 354° |
| 2026-04-21 13:16 | 42.85924 | -83.48108 | 20270 ft | 394 kts | 354° |
| 2026-04-21 13:16 | 42.88673 | -83.48108 | 20726 ft | 396 kts | 354° |
| 2026-04-21 13:16 | 42.91445 | -83.48108 | 21141 ft | 399 kts | 354° |
| 2026-04-21 13:17 | 42.94234 | -83.48108 | 21560 ft | 401 kts | 354° |
| 2026-04-21 13:17 | 42.97037 | -83.48108 | 21978 ft | 403 kts | 355° |
| 2026-04-21 13:17 | 42.99816 | -83.48109 | 22376 ft | 406 kts | 355° |
| 2026-04-21 13:17 | 43.02651 | -83.48109 | 22773 ft | 408 kts | 355° |
| 2026-04-21 13:18 | 43.05503 | -83.48109 | 23194 ft | 410 kts | 355° |
| 2026-04-21 13:18 | 43.08371 | -83.48110 | 23548 ft | 413 kts | 355° |
| 2026-04-21 13:18 | 43.11261 | -83.48110 | 23894 ft | 416 kts | 355° |
| 2026-04-21 13:18 | 43.14167 | -83.48111 | 24206 ft | 418 kts | 355° |
| 2026-04-21 13:19 | 43.17052 | -83.48111 | 24517 ft | 419 kts | 355° |
| 2026-04-21 13:19 | 43.19974 | -83.48272 | 24815 ft | 418 kts | 349° |
| 2026-04-21 13:19 | 43.22839 | -83.48957 | 25115 ft | 416 kts | 343° |
| 2026-04-21 13:19 | 43.25623 | -83.49910 | 25429 ft | 417 kts | 342° |
| 2026-04-21 13:20 | 43.28454 | -83.50930 | 25732 ft | 419 kts | 342° |
| 2026-04-21 13:20 | 43.31287 | -83.51955 | 26023 ft | 421 kts | 342° |
| 2026-04-21 13:20 | 43.34125 | -83.52981 | 26298 ft | 422 kts | 342° |
| 2026-04-21 13:20 | 43.36979 | -83.54012 | 26533 ft | 425 kts | 342° |
| 2026-04-21 13:21 | 43.39821 | -83.55038 | 26763 ft | 428 kts | 342° |
| 2026-04-21 13:21 | 43.42706 | -83.56080 | 27039 ft | 429 kts | 342° |
| 2026-04-21 13:21 | 43.45614 | -83.57130 | 27308 ft | 431 kts | 342° |
| 2026-04-21 13:21 | 43.48523 | -83.58181 | 27565 ft | 433 kts | 342° |
| 2026-04-21 13:22 | 43.51439 | -83.59236 | 27824 ft | 434 kts | 342° |
| 2026-04-21 13:22 | 43.54340 | -83.60287 | 28072 ft | 436 kts | 342° |
| 2026-04-21 13:22 | 43.57274 | -83.61363 | 28316 ft | 437 kts | 342° |
| 2026-04-21 13:22 | 43.60223 | -83.62447 | 28580 ft | 439 kts | 342° |
| 2026-04-21 13:23 | 43.63178 | -83.63534 | 28817 ft | 440 kts | 342° |
| 2026-04-21 13:23 | 43.66156 | -83.64631 | 29127 ft | 440 kts | 342° |
| 2026-04-21 13:23 | 43.69096 | -83.65668 | 29473 ft | 440 kts | 345° |
| 2026-04-21 13:23 | 43.72135 | -83.66315 | 29829 ft | 443 kts | 352° |
| 2026-04-21 13:24 | 43.75225 | -83.66394 | 30144 ft | 445 kts | 357° |
| 2026-04-21 13:24 | 43.78330 | -83.66246 | 30422 ft | 445 kts | 358° |
| 2026-04-21 13:24 | 43.81398 | -83.66015 | 30679 ft | 445 kts | 359° |
| 2026-04-21 13:24 | 43.84494 | -83.65746 | 30931 ft | 444 kts | 359° |
| 2026-04-21 13:25 | 43.87591 | -83.65468 | 31232 ft | 443 kts | 359° |
| 2026-04-21 13:25 | 43.90639 | -83.65200 | 31501 ft | 442 kts | 359° |
| 2026-04-21 13:25 | 43.93718 | -83.64938 | 31754 ft | 441 kts | 359° |
| 2026-04-21 13:25 | 43.96788 | -83.64686 | 32000 ft | 441 kts | 359° |
| 2026-04-21 13:26 | 43.99850 | -83.64441 | 32239 ft | 440 kts | 359° |
| 2026-04-21 13:26 | 44.02908 | -83.64198 | 32477 ft | 439 kts | 359° |
| 2026-04-21 13:26 | 44.05963 | -83.63957 | 32736 ft | 438 kts | 358° |
| 2026-04-21 13:26 | 44.08961 | -83.63720 | 32985 ft | 437 kts | 358° |
| 2026-04-21 13:27 | 44.12005 | -83.63479 | 33216 ft | 436 kts | 358° |
| 2026-04-21 13:27 | 44.15051 | -83.63238 | 33433 ft | 436 kts | 358° |
| 2026-04-21 13:27 | 44.18044 | -83.63000 | 33642 ft | 435 kts | 358° |
| 2026-04-21 13:27 | 44.21069 | -83.62760 | 33852 ft | 435 kts | 358° |
| 2026-04-21 13:28 | 44.24092 | -83.62519 | 34056 ft | 434 kts | 358° |
| 2026-04-21 13:28 | 44.27110 | -83.62277 | 34268 ft | 433 kts | 358° |
| 2026-04-21 13:28 | 44.30128 | -83.62036 | 34439 ft | 432 kts | 358° |
| 2026-04-21 13:28 | 44.33098 | -83.61798 | 34587 ft | 432 kts | 358° |
| 2026-04-21 13:29 | 44.36109 | -83.61558 | 34724 ft | 432 kts | 358° |
| 2026-04-21 13:29 | 44.39112 | -83.61317 | 34871 ft | 432 kts | 358° |
| 2026-04-21 13:29 | 44.42119 | -83.61076 | 35013 ft | 432 kts | 358° |
| 2026-04-21 13:29 | 44.45133 | -83.60834 | 35112 ft | 433 kts | 358° |
| 2026-04-21 13:30 | 44.51153 | -83.60353 | 35107 ft | 437 kts | 358° |
| 2026-04-21 13:30 | 44.57217 | -83.59861 | 35102 ft | 434 kts | 358° |
| 2026-04-21 13:31 | 44.63259 | -83.59372 | 35084 ft | 434 kts | 358° |
| 2026-04-21 13:31 | 44.69256 | -83.58886 | 35095 ft | 434 kts | 358° |
| 2026-04-21 13:32 | 44.75303 | -83.58396 | 35098 ft | 434 kts | 358° |
| 2026-04-21 13:32 | 44.81341 | -83.57905 | 35094 ft | 435 kts | 358° |
| 2026-04-21 13:33 | 44.87384 | -83.57412 | 35090 ft | 434 kts | 358° |
| 2026-04-21 13:33 | 44.93378 | -83.56922 | 35085 ft | 433 kts | 358° |
| 2026-04-21 13:34 | 44.99404 | -83.56429 | 35074 ft | 433 kts | 358° |
| 2026-04-21 13:34 | 45.05436 | -83.55935 | 35054 ft | 433 kts | 358° |
| 2026-04-21 13:35 | 45.11415 | -83.54958 | 35054 ft | 436 kts | 2° |
| 2026-04-21 13:35 | 45.17430 | -83.53613 | 35054 ft | 437 kts | 3° |
| 2026-04-21 13:36 | 45.23448 | -83.52201 | 35057 ft | 437 kts | 3° |
| 2026-04-21 13:36 | 45.29409 | -83.50797 | 35052 ft | 436 kts | 3° |
| 2026-04-21 13:37 | 45.35404 | -83.49394 | 35024 ft | 436 kts | 3° |
| 2026-04-21 13:37 | 45.41365 | -83.47999 | 35028 ft | 436 kts | 3° |
| 2026-04-21 13:38 | 45.47355 | -83.46596 | 35022 ft | 435 kts | 3° |
| 2026-04-21 13:38 | 45.53336 | -83.45191 | 35024 ft | 435 kts | 3° |
| 2026-04-21 13:39 | 45.59320 | -83.43782 | 35044 ft | 435 kts | 3° |
| 2026-04-21 13:39 | 45.65260 | -83.42380 | 35031 ft | 435 kts | 2° |
| 2026-04-21 13:40 | 45.71248 | -83.40964 | 35034 ft | 435 kts | 2° |
| 2026-04-21 13:40 | 45.77228 | -83.39547 | 35030 ft | 435 kts | 2° |
| 2026-04-21 13:41 | 45.83165 | -83.38137 | 35035 ft | 434 kts | 2° |
| 2026-04-21 13:41 | 45.89120 | -83.36719 | 35034 ft | 433 kts | 2° |
| 2026-04-21 13:42 | 45.95056 | -83.35303 | 35031 ft | 434 kts | 2° |
| 2026-04-21 13:42 | 46.01016 | -83.33879 | 35038 ft | 433 kts | 2° |
| 2026-04-21 13:43 | 46.06936 | -83.32461 | 35033 ft | 433 kts | 2° |
| 2026-04-21 13:43 | 46.12894 | -83.31031 | 35034 ft | 433 kts | 2° |
| 2026-04-21 13:44 | 46.18853 | -83.29597 | 35040 ft | 433 kts | 2° |
| 2026-04-21 13:44 | 46.24765 | -83.28171 | 35043 ft | 433 kts | 2° |
| 2026-04-21 13:45 | 46.30718 | -83.26732 | 35045 ft | 433 kts | 2° |
| 2026-04-21 13:45 | 46.36635 | -83.25299 | 35041 ft | 433 kts | 2° |
| 2026-04-21 13:46 | 46.42578 | -83.23857 | 35041 ft | 433 kts | 2° |
| 2026-04-21 13:46 | 46.48526 | -83.22409 | 35035 ft | 433 kts | 2° |
| 2026-04-21 13:47 | 46.54477 | -83.20959 | 35037 ft | 433 kts | 2° |
| 2026-04-21 13:47 | 46.60392 | -83.19514 | 35037 ft | 433 kts | 2° |
| 2026-04-21 13:48 | 46.66347 | -83.18055 | 35034 ft | 433 kts | 2° |
| 2026-04-21 13:48 | 46.72269 | -83.16602 | 35035 ft | 433 kts | 2° |
| 2026-04-21 13:49 | 46.78218 | -83.15139 | 35049 ft | 433 kts | 2° |
| 2026-04-21 13:49 | 46.84159 | -83.13674 | 35039 ft | 433 kts | 2° |
| 2026-04-21 13:50 | 46.90075 | -83.12213 | 35031 ft | 433 kts | 2° |
| 2026-04-21 13:50 | 46.96025 | -83.10738 | 35029 ft | 433 kts | 2° |
| 2026-04-21 13:51 | 47.01931 | -83.09272 | 35025 ft | 432 kts | 2° |
| 2026-04-21 13:51 | 47.07859 | -83.07797 | 35024 ft | 431 kts | 2° |
| 2026-04-21 13:52 | 47.13788 | -83.06320 | 35021 ft | 431 kts | 2° |
| 2026-04-21 13:52 | 47.19674 | -83.04849 | 35025 ft | 431 kts | 2° |
| 2026-04-21 13:53 | 47.25584 | -83.03367 | 35015 ft | 429 kts | 2° |
| 2026-04-21 13:53 | 47.31450 | -83.01895 | 35009 ft | 429 kts | 2° |
| 2026-04-21 13:54 | 47.37351 | -83.00412 | 35008 ft | 429 kts | 2° |
| 2026-04-21 13:54 | 47.43239 | -82.98927 | 35006 ft | 428 kts | 2° |
| 2026-04-21 13:55 | 47.49088 | -82.97448 | 35005 ft | 428 kts | 2° |
| 2026-04-21 13:55 | 47.53979 | -82.96209 | 34999 ft | 428 kts | 2° |
| 2026-04-21 13:56 | 47.59869 | -82.94715 | 35015 ft | 428 kts | 2° |
| 2026-04-21 13:56 | 47.65735 | -82.93222 | 34993 ft | 427 kts | 2° |
| 2026-04-21 13:57 | 47.71561 | -82.91736 | 34990 ft | 427 kts | 2° |
| 2026-04-21 13:57 | 47.77433 | -82.90237 | 34990 ft | 427 kts | 2° |
| 2026-04-21 13:58 | 47.83247 | -82.88748 | 34976 ft | 426 kts | 2° |
| 2026-04-21 13:58 | 47.89098 | -82.87245 | 34981 ft | 426 kts | 2° |
| 2026-04-21 13:59 | 47.94961 | -82.85737 | 34982 ft | 426 kts | 2° |
| 2026-04-21 13:59 | 48.00769 | -82.84239 | 35008 ft | 426 kts | 2° |
| 2026-04-21 14:00 | 48.06618 | -82.82727 | 34979 ft | 425 kts | 2° |
| 2026-04-21 14:00 | 48.12431 | -82.81221 | 34977 ft | 425 kts | 2° |
| 2026-04-21 14:01 | 48.18264 | -82.79707 | 34970 ft | 425 kts | 2° |
| 2026-04-21 14:01 | 48.24111 | -82.78187 | 34975 ft | 425 kts | 1° |
| 2026-04-21 14:02 | 48.29956 | -82.76662 | 34966 ft | 426 kts | 1° |
| 2026-04-21 14:03 | 48.38687 | -82.74378 | 34960 ft | 426 kts | 1° |
| 2026-04-21 14:03 | 48.44537 | -82.72843 | 34964 ft | 426 kts | 1° |
| 2026-04-21 14:04 | 48.50346 | -82.71313 | 34953 ft | 426 kts | 1° |
| 2026-04-21 14:04 | 48.56199 | -82.69770 | 34947 ft | 425 kts | 1° |
| 2026-04-21 14:05 | 48.62039 | -82.68228 | 34941 ft | 426 kts | 1° |
| 2026-04-21 14:05 | 48.67853 | -82.66688 | 34935 ft | 426 kts | 1° |
| 2026-04-21 14:06 | 48.73681 | -82.65142 | 34938 ft | 426 kts | 1° |
| 2026-04-21 14:06 | 48.79518 | -82.63589 | 34938 ft | 426 kts | 1° |
| 2026-04-21 14:07 | 48.85365 | -82.62029 | 34954 ft | 426 kts | 1° |
| 2026-04-21 14:07 | 48.91203 | -82.60467 | 34934 ft | 426 kts | 1° |
| 2026-04-21 14:08 | 48.97012 | -82.58911 | 34923 ft | 426 kts | 1° |
| 2026-04-21 14:08 | 49.02860 | -82.57341 | 34926 ft | 426 kts | 1° |
| 2026-04-21 14:09 | 49.08710 | -82.55765 | 34930 ft | 426 kts | 1° |
| 2026-04-21 14:09 | 49.14516 | -82.54197 | 34914 ft | 426 kts | 1° |
| 2026-04-21 14:10 | 49.20360 | -82.52616 | 34925 ft | 426 kts | 1° |
| 2026-04-21 14:10 | 49.26211 | -82.51030 | 34914 ft | 426 kts | 1° |
| 2026-04-21 14:11 | 49.32017 | -82.49451 | 34900 ft | 425 kts | 1° |
| 2026-04-21 14:11 | 49.37895 | -82.47869 | 34898 ft | 430 kts | 359° |
| 2026-04-21 14:12 | 49.43851 | -82.47178 | 34899 ft | 429 kts | 354° |
| 2026-04-21 14:12 | 49.49819 | -82.46905 | 34891 ft | 431 kts | 353° |
| 2026-04-21 14:13 | 49.55822 | -82.46711 | 34895 ft | 430 kts | 353° |
| 2026-04-21 14:13 | 49.61767 | -82.46515 | 34899 ft | 429 kts | 353° |
| 2026-04-21 14:14 | 49.67747 | -82.46305 | 34903 ft | 429 kts | 353° |
| 2026-04-21 14:14 | 49.73739 | -82.46087 | 34930 ft | 429 kts | 353° |
| 2026-04-21 14:15 | 49.79689 | -82.45868 | 34914 ft | 429 kts | 353° |
| 2026-04-21 14:15 | 49.85634 | -82.45649 | 34909 ft | 429 kts | 353° |
| 2026-04-21 14:16 | 49.91620 | -82.45429 | 34906 ft | 429 kts | 353° |
| 2026-04-21 14:16 | 49.97597 | -82.45208 | 34911 ft | 429 kts | 353° |
| 2026-04-21 14:17 | 50.03537 | -82.44988 | 34904 ft | 429 kts | 353° |
| 2026-04-21 14:17 | 50.09524 | -82.44767 | 34902 ft | 429 kts | 353° |
| 2026-04-21 14:18 | 50.15508 | -82.44545 | 34899 ft | 429 kts | 353° |
| 2026-04-21 14:18 | 50.21451 | -82.44323 | 34899 ft | 430 kts | 353° |
| 2026-04-21 14:19 | 50.27430 | -82.44100 | 34903 ft | 430 kts | 353° |
| 2026-04-21 14:19 | 50.33427 | -82.43875 | 34895 ft | 430 kts | 353° |
| 2026-04-21 14:20 | 50.39411 | -82.43650 | 34897 ft | 430 kts | 353° |
| 2026-04-21 14:20 | 50.45407 | -82.43424 | 34892 ft | 430 kts | 353° |
| 2026-04-21 14:21 | 50.51358 | -82.43199 | 34888 ft | 430 kts | 353° |
| 2026-04-21 14:21 | 50.57361 | -82.42972 | 34886 ft | 430 kts | 353° |
| 2026-04-21 14:22 | 50.63320 | -82.42746 | 34934 ft | 430 kts | 353° |
| 2026-04-21 14:22 | 50.69322 | -82.42518 | 34887 ft | 431 kts | 353° |
| 2026-04-21 14:23 | 50.75324 | -82.42289 | 34881 ft | 431 kts | 353° |
| 2026-04-21 14:23 | 50.81328 | -82.42059 | 34882 ft | 431 kts | 353° |
| 2026-04-21 14:24 | 50.87288 | -82.41831 | 34880 ft | 431 kts | 353° |
| 2026-04-21 14:24 | 50.93293 | -82.41600 | 34879 ft | 431 kts | 353° |
| 2026-04-21 14:25 | 50.99292 | -82.41369 | 34879 ft | 431 kts | 353° |
| 2026-04-21 14:25 | 51.05299 | -82.41136 | 34882 ft | 431 kts | 353° |
| 2026-04-21 14:26 | 51.11272 | -82.40907 | 34887 ft | 432 kts | 352° |
| 2026-04-21 14:26 | 51.17294 | -82.40674 | 34869 ft | 432 kts | 352° |
| 2026-04-21 14:27 | 51.23324 | -82.40438 | 34881 ft | 432 kts | 352° |
| 2026-04-21 14:27 | 51.29341 | -82.40202 | 34867 ft | 433 kts | 352° |
| 2026-04-21 14:28 | 51.35319 | -82.39968 | 34883 ft | 433 kts | 353° |
| 2026-04-21 14:28 | 51.41359 | -82.39731 | 34868 ft | 433 kts | 353° |
| 2026-04-21 14:29 | 51.47402 | -82.39494 | 34867 ft | 433 kts | 353° |
| 2026-04-21 14:29 | 51.53397 | -82.39256 | 34869 ft | 433 kts | 353° |
| 2026-04-21 14:30 | 51.59442 | -82.39018 | 34875 ft | 434 kts | 353° |
| 2026-04-21 14:30 | 51.65495 | -82.38780 | 34870 ft | 435 kts | 353° |
| 2026-04-21 14:31 | 51.71525 | -82.38540 | 34865 ft | 436 kts | 353° |
| 2026-04-21 14:31 | 51.77596 | -82.38296 | 34865 ft | 436 kts | 353° |
| 2026-04-21 14:32 | 51.83674 | -82.38054 | 34866 ft | 437 kts | 353° |
| 2026-04-21 14:32 | 51.89731 | -82.37813 | 34864 ft | 438 kts | 353° |
| 2026-04-21 14:33 | 51.95833 | -82.37566 | 34861 ft | 438 kts | 353° |
| 2026-04-21 14:33 | 52.01895 | -82.37321 | 34862 ft | 438 kts | 353° |
| 2026-04-21 14:34 | 52.08009 | -82.37075 | 34859 ft | 440 kts | 353° |
| 2026-04-21 14:34 | 52.14154 | -82.36829 | 34856 ft | 442 kts | 353° |
| 2026-04-21 14:35 | 52.20285 | -82.36578 | 34857 ft | 442 kts | 353° |
| 2026-04-21 14:35 | 52.26447 | -82.36325 | 34857 ft | 442 kts | 353° |
| 2026-04-21 14:36 | 52.32625 | -82.36074 | 34857 ft | 445 kts | 354° |
| 2026-04-21 14:36 | 52.38833 | -82.35822 | 34856 ft | 446 kts | 354° |
| 2026-04-21 14:37 | 52.45005 | -82.35567 | 34854 ft | 446 kts | 354° |
| 2026-04-21 14:37 | 52.51218 | -82.35309 | 34853 ft | 446 kts | 354° |
| 2026-04-21 14:38 | 52.57458 | -82.35054 | 34855 ft | 450 kts | 354° |
| 2026-04-21 14:38 | 52.63713 | -82.34797 | 34850 ft | 452 kts | 354° |
| 2026-04-21 14:39 | 52.70007 | -82.34532 | 34851 ft | 452 kts | 354° |
| 2026-04-21 14:39 | 52.76307 | -82.34267 | 34872 ft | 452 kts | 354° |
| 2026-04-21 14:40 | 52.82583 | -82.34007 | 34838 ft | 455 kts | 355° |
| 2026-04-21 14:40 | 52.88931 | -82.33742 | 34833 ft | 456 kts | 355° |
| 2026-04-21 14:41 | 52.95287 | -82.33473 | 34831 ft | 456 kts | 355° |
| 2026-04-21 14:41 | 53.01652 | -82.33203 | 34858 ft | 457 kts | 355° |
| 2026-04-21 14:42 | 53.08000 | -82.32938 | 34834 ft | 461 kts | 355° |
| 2026-04-21 14:42 | 53.14401 | -82.32667 | 34833 ft | 462 kts | 355° |
| 2026-04-21 14:43 | 53.20817 | -82.32388 | 34826 ft | 460 kts | 355° |
| 2026-04-21 14:43 | 53.27222 | -82.32113 | 34832 ft | 459 kts | 355° |
| 2026-04-21 14:44 | 53.33613 | -82.31841 | 34829 ft | 458 kts | 355° |
| 2026-04-21 14:44 | 53.39959 | -82.31570 | 34829 ft | 459 kts | 355° |
| 2026-04-21 14:45 | 53.45270 | -82.31342 | 34829 ft | 459 kts | 355° |
| 2026-04-21 14:45 | 53.51667 | -82.31066 | 34840 ft | 459 kts | 355° |
| 2026-04-21 14:46 | 53.58078 | -82.30791 | 34827 ft | 462 kts | 355° |
| 2026-04-21 14:46 | 53.64505 | -82.30512 | 34818 ft | 462 kts | 355° |
| 2026-04-21 14:47 | 53.70909 | -82.30231 | 34818 ft | 462 kts | 355° |
| 2026-04-21 14:47 | 53.77346 | -82.29950 | 34826 ft | 463 kts | 356° |
| 2026-04-21 14:48 | 53.83781 | -82.29671 | 34818 ft | 466 kts | 356° |
| 2026-04-21 14:48 | 53.90288 | -82.29384 | 34812 ft | 467 kts | 356° |
| 2026-04-21 14:49 | 53.96792 | -82.29095 | 34814 ft | 467 kts | 356° |
| 2026-04-21 14:49 | 54.03262 | -82.28809 | 34816 ft | 468 kts | 356° |
| 2026-04-21 14:50 | 54.09796 | -82.28521 | 34813 ft | 470 kts | 356° |
| 2026-04-21 14:50 | 54.16329 | -82.28229 | 34812 ft | 470 kts | 356° |
| 2026-04-21 14:51 | 54.22834 | -82.27938 | 34819 ft | 470 kts | 356° |
| 2026-04-21 14:51 | 54.29402 | -82.27644 | 34816 ft | 471 kts | 357° |
| 2026-04-21 14:52 | 54.35965 | -82.27350 | 34812 ft | 472 kts | 357° |
| 2026-04-21 14:52 | 54.42539 | -82.27053 | 34816 ft | 472 kts | 357° |
| 2026-04-21 14:53 | 54.49085 | -82.26756 | 34815 ft | 472 kts | 357° |
| 2026-04-21 14:53 | 54.55680 | -82.26457 | 34814 ft | 473 kts | 357° |
| 2026-04-21 14:54 | 54.62233 | -82.26159 | 34813 ft | 474 kts | 357° |
| 2026-04-21 14:54 | 54.68830 | -82.25857 | 34816 ft | 474 kts | 357° |
| 2026-04-21 14:55 | 54.75427 | -82.25555 | 34815 ft | 474 kts | 357° |
| 2026-04-21 14:55 | 54.82037 | -82.25251 | 34824 ft | 475 kts | 358° |
| 2026-04-21 14:56 | 54.88618 | -82.24948 | 34817 ft | 475 kts | 358° |
| 2026-04-21 14:56 | 54.95235 | -82.24642 | 34815 ft | 475 kts | 358° |
| 2026-04-21 14:57 | 55.01856 | -82.24334 | 34840 ft | 475 kts | 358° |
| 2026-04-21 14:57 | 55.08491 | -82.24025 | 34823 ft | 477 kts | 358° |
| 2026-04-21 14:58 | 55.15093 | -82.23717 | 34823 ft | 477 kts | 358° |
| 2026-04-21 14:58 | 55.21734 | -82.23405 | 34826 ft | 477 kts | 358° |
| 2026-04-21 14:59 | 55.28391 | -82.23092 | 34842 ft | 477 kts | 358° |
| 2026-04-21 14:59 | 55.35006 | -82.22781 | 34827 ft | 479 kts | 358° |
| 2026-04-21 15:00 | 55.41691 | -82.22462 | 34822 ft | 479 kts | 358° |
| 2026-04-21 15:00 | 55.48324 | -82.22144 | 34818 ft | 477 kts | 358° |
| 2026-04-21 15:01 | 55.54970 | -82.21829 | 34838 ft | 477 kts | 358° |
| 2026-04-21 15:01 | 55.61630 | -82.21513 | 34823 ft | 479 kts | 358° |
| 2026-04-21 15:02 | 55.68265 | -82.21195 | 34826 ft | 479 kts | 358° |
| 2026-04-21 15:02 | 55.74954 | -82.20872 | 34829 ft | 479 kts | 358° |
| 2026-04-21 15:03 | 55.81631 | -82.20549 | 34829 ft | 479 kts | 358° |
| 2026-04-21 15:03 | 55.88273 | -82.20227 | 34834 ft | 479 kts | 358° |
| 2026-04-21 15:04 | 55.94947 | -82.19902 | 34833 ft | 479 kts | 358° |
| 2026-04-21 15:04 | 56.01590 | -82.19577 | 34834 ft | 479 kts | 358° |
| 2026-04-21 15:05 | 56.08272 | -82.19250 | 34842 ft | 480 kts | 358° |
| 2026-04-21 15:05 | 56.18278 | -82.18759 | 34842 ft | 481 kts | 358° |
| 2026-04-21 15:06 | 56.24982 | -82.18427 | 34843 ft | 481 kts | 358° |
| 2026-04-21 15:06 | 56.31682 | -82.18094 | 34846 ft | 481 kts | 358° |
| 2026-04-21 15:07 | 56.38387 | -82.17761 | 34837 ft | 482 kts | 358° |
| 2026-04-21 15:07 | 56.45082 | -82.17427 | 34838 ft | 483 kts | 358° |
| 2026-04-21 15:08 | 56.51810 | -82.17089 | 34843 ft | 483 kts | 358° |
| 2026-04-21 15:08 | 56.58495 | -82.16752 | 34843 ft | 483 kts | 358° |
| 2026-04-21 15:09 | 56.65226 | -82.16413 | 34846 ft | 484 kts | 359° |
| 2026-04-21 15:09 | 56.71969 | -82.16072 | 34851 ft | 485 kts | 359° |
| 2026-04-21 15:10 | 56.78718 | -82.15728 | 34851 ft | 485 kts | 359° |
| 2026-04-21 15:10 | 56.85471 | -82.15383 | 34853 ft | 485 kts | 359° |
| 2026-04-21 15:11 | 56.92178 | -82.15039 | 34857 ft | 485 kts | 359° |
| 2026-04-21 15:11 | 56.98942 | -82.14691 | 34856 ft | 485 kts | 359° |
| 2026-04-21 15:12 | 57.05702 | -82.14344 | 34863 ft | 485 kts | 359° |
| 2026-04-21 15:12 | 57.12419 | -82.13995 | 34863 ft | 485 kts | 359° |
| 2026-04-21 15:13 | 57.19179 | -82.13644 | 34871 ft | 486 kts | 359° |
| 2026-04-21 15:13 | 57.25947 | -82.13290 | 34874 ft | 486 kts | 359° |
| 2026-04-21 15:14 | 57.32715 | -82.12933 | 34856 ft | 486 kts | 359° |
| 2026-04-21 15:14 | 57.39483 | -82.12581 | 34867 ft | 486 kts | 359° |
| 2026-04-21 15:15 | 57.46251 | -82.12221 | 34871 ft | 486 kts | 359° |
| 2026-04-21 15:15 | 57.52993 | -82.11866 | 34870 ft | 486 kts | 359° |
| 2026-04-21 15:16 | 57.59778 | -82.11509 | 34879 ft | 487 kts | 359° |
| 2026-04-21 15:16 | 57.66518 | -82.11150 | 34879 ft | 487 kts | 359° |
| 2026-04-21 15:17 | 57.73310 | -82.10784 | 34882 ft | 487 kts | 359° |
| 2026-04-21 15:17 | 57.80091 | -82.10415 | 34884 ft | 487 kts | 359° |
| 2026-04-21 15:18 | 57.86881 | -82.10044 | 34888 ft | 487 kts | 358° |
| 2026-04-21 15:18 | 57.93620 | -82.09689 | 34892 ft | 487 kts | 359° |
| 2026-04-21 15:19 | 58.00398 | -82.09321 | 34893 ft | 488 kts | 360° |
| 2026-04-21 15:19 | 58.07202 | -82.08948 | 34893 ft | 488 kts | 358° |
| 2026-04-21 15:20 | 58.14003 | -82.08583 | 34910 ft | 489 kts | 359° |
| 2026-04-21 15:20 | 58.20757 | -82.08210 | 34909 ft | 488 kts | 359° |
| 2026-04-21 15:21 | 58.27557 | -82.07830 | 34902 ft | 489 kts | 359° |
| 2026-04-21 15:21 | 58.34369 | -82.07455 | 34904 ft | 489 kts | 358° |
| 2026-04-21 15:22 | 58.41147 | -82.07078 | 34905 ft | 489 kts | 359° |
| 2026-04-21 15:22 | 58.47953 | -82.06689 | 34920 ft | 489 kts | 359° |
| 2026-04-21 15:23 | 58.54763 | -82.06311 | 34914 ft | 489 kts | 359° |
| 2026-04-21 15:23 | 58.61571 | -82.05931 | 34923 ft | 489 kts | 359° |
| 2026-04-21 15:24 | 58.68343 | -82.05546 | 34918 ft | 489 kts | 359° |
| 2026-04-21 15:24 | 58.75127 | -82.05161 | 34918 ft | 489 kts | 359° |
| 2026-04-21 15:25 | 58.81944 | -82.04779 | 34934 ft | 490 kts | 359° |
| 2026-04-21 15:25 | 58.88775 | -82.04388 | 34927 ft | 490 kts | 358° |
| 2026-04-21 15:26 | 58.95563 | -82.03992 | 34933 ft | 490 kts | 359° |
| 2026-04-21 15:26 | 59.02393 | -82.03601 | 34944 ft | 490 kts | 359° |
| 2026-04-21 15:27 | 59.09182 | -82.03217 | 34951 ft | 491 kts | 359° |
| 2026-04-21 15:27 | 59.16030 | -82.02823 | 34951 ft | 492 kts | 359° |
| 2026-04-21 15:28 | 59.22874 | -82.02417 | 34938 ft | 492 kts | 358° |
| 2026-04-21 15:28 | 59.29722 | -82.02013 | 34950 ft | 492 kts | 358° |
| 2026-04-21 15:29 | 59.36532 | -82.01610 | 34968 ft | 492 kts | 360° |
| 2026-04-21 15:29 | 59.43390 | -82.01214 | 34955 ft | 493 kts | 359° |
| 2026-04-21 15:30 | 59.50261 | -82.00807 | 34965 ft | 494 kts | 359° |
| 2026-04-21 15:30 | 59.57143 | -82.00395 | 34966 ft | 494 kts | 359° |
| 2026-04-21 15:31 | 59.64015 | -81.99985 | 34971 ft | 494 kts | 360° |
| 2026-04-21 15:31 | 59.70909 | -81.99569 | 34979 ft | 495 kts | 0° |
| 2026-04-21 15:32 | 59.77760 | -81.99157 | 34982 ft | 495 kts | 359° |
| 2026-04-21 15:32 | 59.84662 | -81.98742 | 34990 ft | 495 kts | 359° |
| 2026-04-21 15:33 | 59.91556 | -81.98315 | 34987 ft | 495 kts | 359° |
| 2026-04-21 15:33 | 59.98414 | -81.97899 | 34995 ft | 496 kts | 359° |
| 2026-04-21 15:34 | 60.04165 | -81.97551 | 35029 ft | 496 kts | 0° |
| 2026-04-21 15:34 | 60.07602 | -81.97340 | 35473 ft | 488 kts | 360° |
| 2026-04-21 15:34 | 60.10966 | -81.97125 | 35887 ft | 482 kts | 359° |
| 2026-04-21 15:35 | 60.14311 | -81.96911 | 36105 ft | 480 kts | 359° |
| 2026-04-21 15:35 | 60.17650 | -81.96708 | 36267 ft | 479 kts | 359° |
| 2026-04-21 15:35 | 60.20996 | -81.96509 | 36396 ft | 479 kts | 359° |
| 2026-04-21 15:35 | 60.24287 | -81.96306 | 36511 ft | 480 kts | 359° |
| 2026-04-21 15:36 | 60.27635 | -81.96095 | 36644 ft | 480 kts | 359° |
| 2026-04-21 15:36 | 60.30977 | -81.95894 | 36749 ft | 480 kts | 360° |
| 2026-04-21 15:36 | 60.34316 | -81.95689 | 36865 ft | 480 kts | 358° |
| 2026-04-21 15:36 | 60.37659 | -81.95476 | 36982 ft | 480 kts | 358° |
| 2026-04-21 15:37 | 60.44374 | -81.95052 | 37030 ft | 483 kts | 359° |
| 2026-04-21 15:37 | 60.51094 | -81.94628 | 37052 ft | 482 kts | 359° |
| 2026-04-21 15:38 | 60.57764 | -81.94204 | 37035 ft | 483 kts | 359° |
| 2026-04-21 15:38 | 60.64492 | -81.93778 | 37051 ft | 483 kts | 359° |
| 2026-04-21 15:39 | 60.71219 | -81.93360 | 37048 ft | 483 kts | 359° |
| 2026-04-21 15:39 | 60.77898 | -81.92928 | 37050 ft | 483 kts | 0° |
| 2026-04-21 15:40 | 60.84629 | -81.92495 | 37056 ft | 484 kts | 359° |
| 2026-04-21 15:40 | 60.91377 | -81.92059 | 37064 ft | 485 kts | 359° |
| 2026-04-21 15:41 | 60.98132 | -81.91616 | 37075 ft | 485 kts | 359° |
| 2026-04-21 15:41 | 61.04844 | -81.91187 | 37075 ft | 485 kts | 359° |
| 2026-04-21 15:42 | 61.11595 | -81.90746 | 37086 ft | 485 kts | 0° |
| 2026-04-21 15:42 | 61.18354 | -81.90299 | 37080 ft | 486 kts | 359° |
| 2026-04-21 15:43 | 61.25126 | -81.89853 | 37080 ft | 486 kts | 359° |
| 2026-04-21 15:43 | 61.31867 | -81.89407 | 37081 ft | 486 kts | 359° |
| 2026-04-21 15:44 | 61.38633 | -81.88956 | 37091 ft | 486 kts | 360° |
| 2026-04-21 15:44 | 61.45399 | -81.88508 | 37096 ft | 486 kts | 359° |
| 2026-04-21 15:45 | 61.52129 | -81.88053 | 37100 ft | 486 kts | 0° |
| 2026-04-21 15:45 | 61.58916 | -81.87592 | 37101 ft | 490 kts | 359° |
| 2026-04-21 15:46 | 61.65769 | -81.87129 | 37101 ft | 495 kts | 359° |
| 2026-04-21 15:46 | 61.72720 | -81.86665 | 37109 ft | 501 kts | 359° |
| 2026-04-21 15:47 | 61.79686 | -81.86190 | 37109 ft | 506 kts | 359° |
| 2026-04-21 15:47 | 61.86747 | -81.85699 | 37113 ft | 505 kts | 359° |
| 2026-04-21 15:48 | 61.93724 | -81.85216 | 37124 ft | 504 kts | 360° |
| 2026-04-21 15:48 | 62.00752 | -81.84730 | 37129 ft | 504 kts | 360° |
| 2026-04-21 15:49 | 62.07767 | -81.84244 | 37132 ft | 505 kts | 360° |
| 2026-04-21 15:49 | 62.14805 | -81.83753 | 37132 ft | 505 kts | 360° |
| 2026-04-21 15:50 | 62.21828 | -81.83260 | 37141 ft | 505 kts | 360° |
| 2026-04-21 15:50 | 62.28816 | -81.82766 | 37160 ft | 505 kts | 0° |
| 2026-04-21 15:51 | 62.35857 | -81.82267 | 37140 ft | 506 kts | 0° |
| 2026-04-21 15:51 | 62.42908 | -81.81766 | 37151 ft | 506 kts | 0° |
| 2026-04-21 15:52 | 62.49947 | -81.81262 | 37151 ft | 506 kts | 0° |
| 2026-04-21 15:52 | 62.56948 | -81.80759 | 37156 ft | 506 kts | 0° |
| 2026-04-21 15:53 | 62.64000 | -81.80250 | 37157 ft | 507 kts | 0° |
| 2026-04-21 15:53 | 62.71065 | -81.79738 | 37165 ft | 508 kts | 0° |
| 2026-04-21 15:54 | 62.78139 | -81.79222 | 37170 ft | 508 kts | 0° |
| 2026-04-21 15:54 | 62.85164 | -81.78707 | 37171 ft | 508 kts | 0° |
| 2026-04-21 15:55 | 62.92255 | -81.78185 | 37181 ft | 508 kts | 0° |
| 2026-04-21 15:55 | 62.99297 | -81.77665 | 37178 ft | 509 kts | 0° |
| 2026-04-21 15:56 | 63.06385 | -81.77138 | 37181 ft | 510 kts | 0° |
| 2026-04-21 15:56 | 63.13499 | -81.76606 | 37181 ft | 510 kts | 0° |
| 2026-04-21 15:57 | 63.20563 | -81.76076 | 37194 ft | 510 kts | 0° |
| 2026-04-21 15:57 | 63.27675 | -81.75540 | 37192 ft | 511 kts | 0° |
| 2026-04-21 15:58 | 63.34784 | -81.75001 | 37192 ft | 511 kts | 0° |
| 2026-04-21 15:58 | 63.41863 | -81.74462 | 37193 ft | 511 kts | 0° |
| 2026-04-21 15:59 | 63.48985 | -81.73916 | 37193 ft | 511 kts | 0° |
| 2026-04-21 15:59 | 63.56103 | -81.73369 | 37209 ft | 512 kts | 0° |
| 2026-04-21 16:00 | 63.63242 | -81.72817 | 37214 ft | 513 kts | 0° |
| 2026-04-21 16:00 | 63.70379 | -81.72263 | 37211 ft | 513 kts | 0° |
| 2026-04-21 16:01 | 63.77474 | -81.71708 | 37217 ft | 513 kts | 0° |
| 2026-04-21 16:01 | 63.84607 | -81.71148 | 37212 ft | 513 kts | 0° |
| 2026-04-21 16:02 | 63.91776 | -81.70583 | 37219 ft | 514 kts | 0° |
| 2026-04-21 16:02 | 63.98885 | -81.70019 | 37218 ft | 514 kts | 0° |
| 2026-04-21 16:03 | 64.06044 | -81.69449 | 37230 ft | 514 kts | 0° |
| 2026-04-21 16:03 | 64.13204 | -81.68875 | 37243 ft | 514 kts | 0° |
| 2026-04-21 16:04 | 64.20342 | -81.68301 | 37232 ft | 516 kts | 0° |
| 2026-04-21 16:04 | 64.27529 | -81.67720 | 37232 ft | 516 kts | 0° |
| 2026-04-21 16:05 | 64.34700 | -81.67135 | 37235 ft | 516 kts | 0° |
| 2026-04-21 16:05 | 64.41897 | -81.66546 | 37234 ft | 516 kts | 0° |
| 2026-04-21 16:06 | 64.49051 | -81.65958 | 37238 ft | 516 kts | 0° |
| 2026-04-21 16:06 | 64.56233 | -81.65365 | 37240 ft | 516 kts | 0° |
| 2026-04-21 16:07 | 64.63408 | -81.64769 | 37240 ft | 516 kts | 0° |
| 2026-04-21 16:07 | 64.70551 | -81.64172 | 37240 ft | 516 kts | 0° |
| 2026-04-21 16:08 | 64.81303 | -81.63268 | 37241 ft | 517 kts | 0° |
| 2026-04-21 16:09 | 64.88503 | -81.62659 | 37244 ft | 517 kts | 0° |
| 2026-04-21 16:09 | 64.95706 | -81.62046 | 37243 ft | 517 kts | 0° |
| 2026-04-21 16:10 | 65.02867 | -81.61433 | 37249 ft | 517 kts | 0° |
| 2026-04-21 16:10 | 65.10062 | -81.60815 | 37251 ft | 518 kts | 0° |
| 2026-04-21 16:11 | 65.17300 | -81.60189 | 37249 ft | 519 kts | 0° |
| 2026-04-21 16:11 | 65.24518 | -81.59561 | 37249 ft | 519 kts | 0° |
| 2026-04-21 16:12 | 65.30529 | -81.59036 | 37252 ft | 519 kts | 0° |
| 2026-04-21 16:12 | 65.38933 | -81.58297 | 37269 ft | 519 kts | 0° |
| 2026-04-21 16:13 | 65.46165 | -81.57658 | 37264 ft | 520 kts | 0° |
| 2026-04-21 16:13 | 65.53367 | -81.57018 | 37267 ft | 519 kts | 0° |
| 2026-04-21 16:14 | 65.60590 | -81.56371 | 37266 ft | 518 kts | 0° |
| 2026-04-21 16:14 | 65.67760 | -81.55727 | 37255 ft | 518 kts | 0° |
| 2026-04-21 16:15 | 65.74972 | -81.55076 | 37259 ft | 519 kts | 0° |
| 2026-04-21 16:15 | 65.82203 | -81.54419 | 37265 ft | 519 kts | 0° |
| 2026-04-21 16:16 | 65.89430 | -81.53759 | 37271 ft | 519 kts | 0° |
| 2026-04-21 16:16 | 65.96632 | -81.53096 | 37264 ft | 519 kts | 0° |
| 2026-04-21 16:17 | 66.03867 | -81.52428 | 37274 ft | 520 kts | 0° |
| 2026-04-21 16:17 | 66.11121 | -81.51754 | 37268 ft | 521 kts | 0° |
| 2026-04-21 16:18 | 66.18364 | -81.51076 | 37273 ft | 521 kts | 0° |
| 2026-04-21 16:18 | 66.25574 | -81.50398 | 37271 ft | 521 kts | 0° |
| 2026-04-21 16:19 | 66.32835 | -81.49711 | 37273 ft | 521 kts | 0° |
| 2026-04-21 16:19 | 66.40046 | -81.49026 | 37275 ft | 521 kts | 0° |
| 2026-04-21 16:20 | 66.47308 | -81.48331 | 37276 ft | 522 kts | 0° |
| 2026-04-21 16:20 | 66.54564 | -81.47633 | 37275 ft | 522 kts | 0° |
| 2026-04-21 16:21 | 66.60615 | -81.47047 | 37277 ft | 522 kts | 0° |
| 2026-04-21 16:21 | 66.67857 | -81.46343 | 37283 ft | 522 kts | 1° |
| 2026-04-21 16:22 | 66.75127 | -81.45632 | 37275 ft | 523 kts | 1° |
| 2026-04-21 16:22 | 66.82423 | -81.44914 | 37275 ft | 524 kts | 1° |
| 2026-04-21 16:23 | 66.89715 | -81.44191 | 37274 ft | 524 kts | 1° |
| 2026-04-21 16:23 | 66.96972 | -81.43468 | 37274 ft | 524 kts | 1° |
| 2026-04-21 16:24 | 67.04273 | -81.42737 | 37277 ft | 524 kts | 1° |
| 2026-04-21 16:24 | 67.11536 | -81.42005 | 37273 ft | 525 kts | 1° |
| 2026-04-21 16:25 | 67.18854 | -81.41262 | 37276 ft | 525 kts | 1° |
| 2026-04-21 16:25 | 67.26165 | -81.40516 | 37276 ft | 525 kts | 1° |
| 2026-04-21 16:26 | 67.33487 | -81.39765 | 37277 ft | 525 kts | 1° |
| 2026-04-21 16:26 | 67.40759 | -81.39015 | 37273 ft | 526 kts | 1° |
| 2026-04-21 16:27 | 67.48098 | -81.38252 | 37276 ft | 527 kts | 1° |
| 2026-04-21 16:27 | 67.55432 | -81.37484 | 37276 ft | 527 kts | 1° |
| 2026-04-21 16:28 | 67.62723 | -81.36717 | 37273 ft | 526 kts | 1° |
| 2026-04-21 16:28 | 67.70051 | -81.35941 | 37274 ft | 526 kts | 1° |
| 2026-04-21 16:29 | 67.77386 | -81.35160 | 37271 ft | 526 kts | 1° |
| 2026-04-21 16:29 | 67.84716 | -81.34375 | 37263 ft | 526 kts | 1° |
| 2026-04-21 16:30 | 67.92044 | -81.33584 | 37264 ft | 526 kts | 1° |
| 2026-04-21 16:30 | 67.99331 | -81.32793 | 37264 ft | 527 kts | 1° |
| 2026-04-21 16:31 | 68.06701 | -81.31988 | 37263 ft | 528 kts | 1° |
| 2026-04-21 16:31 | 68.14004 | -81.31185 | 37254 ft | 529 kts | 1° |
| 2026-04-21 16:32 | 68.21365 | -81.30371 | 37252 ft | 528 kts | 1° |
| 2026-04-21 16:32 | 68.28737 | -81.29549 | 37246 ft | 528 kts | 1° |
| 2026-04-21 16:33 | 68.36053 | -81.28730 | 37249 ft | 530 kts | 1° |
| 2026-04-21 16:33 | 68.43418 | -81.27898 | 37250 ft | 529 kts | 1° |
| 2026-04-21 16:34 | 68.50745 | -81.26272 | 37247 ft | 529 kts | 9° |
| 2026-04-21 16:34 | 68.57974 | -81.22255 | 37233 ft | 529 kts | 12° |
| 2026-04-21 16:35 | 68.65100 | -81.17643 | 37242 ft | 529 kts | 13° |
| 2026-04-21 16:35 | 68.72272 | -81.12874 | 37223 ft | 530 kts | 13° |
| 2026-04-21 16:36 | 68.79475 | -81.08113 | 37229 ft | 533 kts | 13° |
| 2026-04-21 16:36 | 68.86665 | -81.03374 | 37233 ft | 534 kts | 13° |
| 2026-04-21 16:37 | 68.93900 | -80.98582 | 37261 ft | 534 kts | 13° |
| 2026-04-21 16:37 | 69.01093 | -80.93784 | 37267 ft | 534 kts | 13° |
| 2026-04-21 16:38 | 69.08329 | -80.88920 | 37260 ft | 535 kts | 13° |
| 2026-04-21 16:38 | 69.15573 | -80.84018 | 37257 ft | 535 kts | 13° |
| 2026-04-21 16:39 | 69.22818 | -80.79082 | 37256 ft | 535 kts | 13° |
| 2026-04-21 16:39 | 69.30061 | -80.74113 | 37254 ft | 535 kts | 13° |
| 2026-04-21 16:40 | 69.37259 | -80.69141 | 37255 ft | 536 kts | 13° |
| 2026-04-21 16:40 | 69.44512 | -80.64095 | 37251 ft | 536 kts | 13° |
| 2026-04-21 16:41 | 69.51772 | -80.59011 | 37243 ft | 536 kts | 13° |
| 2026-04-21 16:41 | 69.59019 | -80.53899 | 37247 ft | 536 kts | 13° |
| 2026-04-21 16:42 | 69.66233 | -80.48776 | 37240 ft | 537 kts | 14° |
| 2026-04-21 16:42 | 69.73493 | -80.43582 | 37242 ft | 538 kts | 14° |
| 2026-04-21 16:43 | 69.80756 | -80.38351 | 37245 ft | 538 kts | 14° |
| 2026-04-21 16:43 | 69.88040 | -80.33066 | 37244 ft | 538 kts | 14° |
| 2026-04-21 16:44 | 69.95279 | -80.27777 | 37250 ft | 538 kts | 14° |
| 2026-04-21 16:44 | 70.02568 | -80.22413 | 37245 ft | 539 kts | 14° |
| 2026-04-21 16:45 | 70.09808 | -80.17045 | 37242 ft | 539 kts | 14° |
| 2026-04-21 16:45 | 70.17084 | -80.11613 | 37246 ft | 539 kts | 14° |
| 2026-04-21 16:46 | 70.24328 | -80.06165 | 37247 ft | 539 kts | 14° |
| 2026-04-21 16:46 | 70.31582 | -80.00669 | 37245 ft | 540 kts | 14° |
| 2026-04-21 16:47 | 70.38887 | -79.95095 | 37236 ft | 540 kts | 14° |
| 2026-04-21 16:47 | 70.46132 | -79.89524 | 37237 ft | 540 kts | 14° |
| 2026-04-21 16:48 | 70.53425 | -79.83876 | 37252 ft | 540 kts | 14° |
| 2026-04-21 16:48 | 70.60718 | -79.78186 | 37242 ft | 540 kts | 15° |
| 2026-04-21 16:49 | 70.68009 | -79.72454 | 37230 ft | 541 kts | 15° |
| 2026-04-21 16:49 | 70.75266 | -79.66707 | 37229 ft | 542 kts | 15° |
| 2026-04-21 16:50 | 70.82570 | -79.60878 | 37238 ft | 542 kts | 15° |
| 2026-04-21 16:50 | 70.89863 | -79.55013 | 37240 ft | 541 kts | 15° |
| 2026-04-21 16:51 | 70.97113 | -79.49140 | 37223 ft | 541 kts | 15° |
| 2026-04-21 16:51 | 71.04400 | -79.43190 | 37217 ft | 541 kts | 15° |
| 2026-04-21 16:52 | 71.11654 | -79.37222 | 37233 ft | 542 kts | 15° |
| 2026-04-21 16:52 | 71.18950 | -79.31173 | 37233 ft | 541 kts | 15° |
| 2026-04-21 16:53 | 71.26240 | -79.25084 | 37207 ft | 541 kts | 15° |
| 2026-04-21 16:53 | 71.33523 | -79.18951 | 37210 ft | 543 kts | 15° |
| 2026-04-21 16:54 | 71.40790 | -79.12784 | 37191 ft | 543 kts | 15° |
| 2026-04-21 16:54 | 71.48093 | -79.06538 | 37190 ft | 543 kts | 15° |
| 2026-04-21 16:55 | 71.55400 | -79.00239 | 37174 ft | 543 kts | 16° |
| 2026-04-21 16:55 | 71.62654 | -78.93937 | 37173 ft | 544 kts | 16° |
| 2026-04-21 16:56 | 71.69960 | -78.87538 | 37151 ft | 544 kts | 16° |
| 2026-04-21 16:56 | 71.77260 | -78.81094 | 37149 ft | 544 kts | 16° |
| 2026-04-21 16:57 | 71.84526 | -78.74627 | 37131 ft | 544 kts | 16° |
| 2026-04-21 16:57 | 71.91835 | -78.68070 | 37136 ft | 544 kts | 16° |
| 2026-04-21 16:58 | 71.99143 | -78.61460 | 37117 ft | 545 kts | 17° |
| 2026-04-21 16:58 | 72.06446 | -78.54801 | 37099 ft | 545 kts | 17° |
| 2026-04-21 16:59 | 72.13710 | -78.48119 | 37102 ft | 545 kts | 17° |
| 2026-04-21 16:59 | 72.21037 | -78.41327 | 37088 ft | 545 kts | 17° |
| 2026-04-21 17:00 | 72.28330 | -78.34517 | 37097 ft | 545 kts | 17° |
| 2026-04-21 17:00 | 72.34409 | -78.28789 | 37081 ft | 547 kts | 17° |
| 2026-04-21 17:01 | 72.42847 | -78.20080 | 37064 ft | 545 kts | 24° |
| 2026-04-21 17:01 | 72.49793 | -78.09834 | 37054 ft | 544 kts | 26° |
| 2026-04-21 17:02 | 72.56672 | -77.99175 | 37064 ft | 544 kts | 27° |
| 2026-04-21 17:02 | 72.63485 | -77.88485 | 37053 ft | 545 kts | 27° |
| 2026-04-21 17:03 | 72.70342 | -77.77626 | 37076 ft | 545 kts | 27° |
| 2026-04-21 17:03 | 72.77207 | -77.66659 | 37067 ft | 545 kts | 27° |
| 2026-04-21 17:04 | 72.84011 | -77.55693 | 37066 ft | 545 kts | 27° |
| 2026-04-21 17:04 | 72.90866 | -77.44550 | 37020 ft | 545 kts | 28° |
| 2026-04-21 17:05 | 72.97729 | -77.33286 | 37040 ft | 549 kts | 28° |
| 2026-04-21 17:05 | 73.04568 | -77.21979 | 37033 ft | 550 kts | 28° |
| 2026-04-21 17:06 | 73.11468 | -77.10470 | 37032 ft | 550 kts | 28° |
| 2026-04-21 17:06 | 73.18351 | -76.98883 | 37032 ft | 550 kts | 28° |
| 2026-04-21 17:07 | 73.24064 | -76.89188 | 37017 ft | 550 kts | 28° |
| 2026-04-21 17:07 | 73.32057 | -76.75505 | 37035 ft | 551 kts | 29° |
| 2026-04-21 17:08 | 73.38929 | -76.63621 | 37041 ft | 551 kts | 29° |
| 2026-04-21 17:08 | 73.44636 | -76.53668 | 37039 ft | 551 kts | 29° |
| 2026-04-21 17:09 | 73.54917 | -76.35553 | 37042 ft | 551 kts | 29° |
| 2026-04-21 17:09 | 73.61783 | -76.23317 | 37042 ft | 551 kts | 30° |
| 2026-04-21 17:10 | 73.68605 | -76.11047 | 37039 ft | 552 kts | 30° |
| 2026-04-21 17:10 | 73.75446 | -75.98627 | 37039 ft | 552 kts | 30° |
| 2026-04-21 17:11 | 73.82291 | -75.86088 | 37033 ft | 552 kts | 30° |
| 2026-04-21 17:11 | 73.89085 | -75.73524 | 37015 ft | 552 kts | 30° |
| 2026-04-21 17:12 | 73.95921 | -75.60764 | 37032 ft | 553 kts | 30° |
| 2026-04-21 17:12 | 74.02715 | -75.47963 | 37026 ft | 553 kts | 30° |
| 2026-04-21 17:13 | 74.09537 | -75.34988 | 37026 ft | 553 kts | 31° |
| 2026-04-21 17:13 | 74.16359 | -75.21887 | 37020 ft | 553 kts | 31° |
| 2026-04-21 17:14 | 74.23127 | -75.08769 | 37020 ft | 553 kts | 31° |
| 2026-04-21 17:14 | 74.29920 | -74.95473 | 37016 ft | 553 kts | 31° |
| 2026-04-21 17:15 | 74.36714 | -74.82047 | 37016 ft | 553 kts | 31° |
| 2026-04-21 17:15 | 74.43501 | -74.68504 | 37015 ft | 553 kts | 31° |
| 2026-04-21 17:16 | 74.50230 | -74.54946 | 37015 ft | 552 kts | 31° |
| 2026-04-21 17:16 | 74.56997 | -74.41181 | 37007 ft | 553 kts | 32° |
| 2026-04-21 17:17 | 74.63754 | -74.27297 | 37008 ft | 553 kts | 32° |
| 2026-04-21 17:17 | 74.67118 | -74.20338 | 36680 ft | 548 kts | 32° |
| 2026-04-21 17:17 | 74.70458 | -74.13393 | 36166 ft | 547 kts | 32° |
| 2026-04-21 17:18 | 74.73792 | -74.06423 | 35641 ft | 546 kts | 32° |
| 2026-04-21 17:18 | 74.77108 | -73.99457 | 35100 ft | 545 kts | 32° |
| 2026-04-21 17:18 | 74.80437 | -73.92430 | 34590 ft | 544 kts | 32° |
| 2026-04-21 17:18 | 74.83744 | -73.85413 | 34056 ft | 544 kts | 32° |
| 2026-04-21 17:19 | 74.87013 | -73.78445 | 33380 ft | 543 kts | 32° |
| 2026-04-21 17:19 | 74.90319 | -73.71362 | 32697 ft | 544 kts | 32° |
| 2026-04-21 17:19 | 74.93622 | -73.64252 | 32021 ft | 543 kts | 32° |
| 2026-04-21 17:19 | 74.96912 | -73.57134 | 31395 ft | 542 kts | 33° |
| 2026-04-21 17:20 | 75.00196 | -73.49994 | 30754 ft | 541 kts | 33° |
| 2026-04-21 17:20 | 75.03483 | -73.42812 | 30117 ft | 540 kts | 33° |
| 2026-04-21 17:20 | 75.06721 | -73.35702 | 29349 ft | 539 kts | 33° |
| 2026-04-21 17:20 | 75.09984 | -73.28503 | 28691 ft | 535 kts | 33° |
| 2026-04-21 17:21 | 75.13202 | -73.21372 | 28174 ft | 530 kts | 33° |
| 2026-04-21 17:21 | 75.16392 | -73.14266 | 27630 ft | 524 kts | 33° |
| 2026-04-21 17:21 | 75.19501 | -73.07304 | 27063 ft | 519 kts | 33° |
| 2026-04-21 17:21 | 75.22617 | -73.00293 | 26547 ft | 513 kts | 33° |
| 2026-04-21 17:22 | 75.25689 | -72.93351 | 25897 ft | 502 kts | 33° |
| 2026-04-21 17:22 | 75.28679 | -72.86571 | 24648 ft | 487 kts | 33° |
| 2026-04-21 17:22 | 75.31540 | -72.80045 | 23281 ft | 474 kts | 33° |
| 2026-04-21 17:22 | 75.34356 | -72.73598 | 21844 ft | 459 kts | 33° |
| 2026-04-21 17:23 | 75.37073 | -72.67383 | 20589 ft | 441 kts | 33° |
| 2026-04-21 17:23 | 75.39683 | -72.61419 | 19450 ft | 424 kts | 32° |
| 2026-04-21 17:23 | 75.42166 | -72.55748 | 18408 ft | 408 kts | 32° |
| 2026-04-21 17:23 | 75.44578 | -72.50236 | 17300 ft | 392 kts | 32° |
| 2026-04-21 17:24 | 75.46907 | -72.44908 | 16247 ft | 378 kts | 32° |
| 2026-04-21 17:24 | 75.49147 | -72.39774 | 15261 ft | 366 kts | 32° |
| 2026-04-21 17:24 | 75.51333 | -72.34758 | 14353 ft | 356 kts | 32° |
| 2026-04-21 17:24 | 75.53478 | -72.29818 | 13525 ft | 372 kts | 32° |
| 2026-04-21 17:25 | 75.55767 | -72.24516 | 12670 ft | 383 kts | 32° |
| 2026-04-21 17:25 | 75.58082 | -72.19139 | 12007 ft | 384 kts | 32° |
| 2026-04-21 17:25 | 75.60392 | -72.13764 | 11402 ft | 382 kts | 32° |
| 2026-04-21 17:25 | 75.62683 | -72.08426 | 10855 ft | 379 kts | 32° |
| 2026-04-21 17:26 | 75.64962 | -72.03109 | 10298 ft | 376 kts | 31° |
| 2026-04-21 17:26 | 75.67225 | -71.97821 | 9785 ft | 373 kts | 31° |
| 2026-04-21 17:26 | 75.69433 | -71.92655 | 9191 ft | 370 kts | 31° |
| 2026-04-21 17:26 | 75.71653 | -71.87455 | 8612 ft | 366 kts | 31° |
| 2026-04-21 17:27 | 75.73846 | -71.82310 | 8061 ft | 363 kts | 31° |
| 2026-04-21 17:27 | 75.76034 | -71.77174 | 7487 ft | 360 kts | 31° |
| 2026-04-21 17:27 | 75.78193 | -71.72100 | 6933 ft | 357 kts | 31° |
| 2026-04-21 17:27 | 75.80307 | -71.67126 | 6411 ft | 353 kts | 31° |
| 2026-04-21 17:28 | 75.82429 | -71.62129 | 5872 ft | 349 kts | 31° |
| 2026-04-21 17:28 | 75.84517 | -71.57205 | 5358 ft | 344 kts | 31° |
| 2026-04-21 17:28 | 75.86537 | -71.52434 | 4844 ft | 323 kts | 31° |
| 2026-04-21 17:28 | 75.88410 | -71.48017 | 4418 ft | 298 kts | 31° |
| 2026-04-21 17:29 | 75.90129 | -71.43966 | 3984 ft | 278 kts | 31° |
| 2026-04-21 17:29 | 75.91769 | -71.40102 | 3499 ft | 265 kts | 31° |
| 2026-04-21 17:29 | 75.93361 | -71.36346 | 3015 ft | 264 kts | 32° |
| 2026-04-21 17:29 | 75.94960 | -71.32567 | 2716 ft | 260 kts | 32° |
| 2026-04-21 17:30 | 75.96516 | -71.28880 | 2784 ft | 259 kts | 32° |
| 2026-04-21 17:30 | 75.98069 | -71.25192 | 2872 ft | 261 kts | 32° |
| 2026-04-21 17:30 | 75.99650 | -71.21441 | 2947 ft | 261 kts | 31° |
| 2026-04-21 17:30 | 76.01227 | -71.17695 | 3053 ft | 261 kts | 32° |
| 2026-04-21 17:31 | 76.02759 | -71.13677 | 3115 ft | 258 kts | 44° |
| 2026-04-21 17:31 | 76.04000 | -71.08502 | 3076 ft | 257 kts | 47° |
| 2026-04-21 17:31 | 76.05329 | -71.03477 | 2994 ft | 257 kts | 43° |
| 2026-04-21 17:31 | 76.06739 | -70.98865 | 2872 ft | 258 kts | 39° |
| 2026-04-21 17:32 | 76.08193 | -70.94558 | 2720 ft | 257 kts | 37° |
| 2026-04-21 17:32 | 76.09687 | -70.90374 | 2607 ft | 259 kts | 35° |
| 2026-04-21 17:32 | 76.11189 | -70.86301 | 2466 ft | 258 kts | 35° |
| 2026-04-21 17:32 | 76.12707 | -70.82245 | 2357 ft | 256 kts | 34° |
| 2026-04-21 17:33 | 76.14202 | -70.78282 | 2247 ft | 260 kts | 35° |
| 2026-04-21 17:33 | 76.15738 | -70.74216 | 2105 ft | 260 kts | 34° |
| 2026-04-21 17:33 | 76.17266 | -70.70176 | 2009 ft | 260 kts | 35° |
| 2026-04-21 17:33 | 76.18808 | -70.66094 | 1997 ft | 261 kts | 34° |
| 2026-04-21 17:34 | 76.20344 | -70.62026 | 1997 ft | 261 kts | 35° |
| 2026-04-21 17:34 | 76.21881 | -70.57941 | 1998 ft | 261 kts | 35° |
| 2026-04-21 17:34 | 76.23414 | -70.53862 | 1999 ft | 261 kts | 35° |
| 2026-04-21 17:34 | 76.24950 | -70.49763 | 1996 ft | 261 kts | 35° |
| 2026-04-21 17:35 | 76.26478 | -70.45674 | 1995 ft | 260 kts | 35° |
| 2026-04-21 17:35 | 76.28004 | -70.41578 | 1996 ft | 260 kts | 35° |
| 2026-04-21 17:35 | 76.29532 | -70.37468 | 1999 ft | 261 kts | 34° |
| 2026-04-21 17:35 | 76.31047 | -70.33381 | 1999 ft | 261 kts | 35° |
| 2026-04-21 17:36 | 76.32571 | -70.29260 | 2000 ft | 261 kts | 35° |
| 2026-04-21 17:36 | 76.34100 | -70.25112 | 1997 ft | 260 kts | 35° |
| 2026-04-21 17:36 | 76.35625 | -70.20967 | 2001 ft | 261 kts | 35° |
| 2026-04-21 17:36 | 76.37155 | -70.16794 | 2001 ft | 261 kts | 35° |
| 2026-04-21 17:37 | 76.38685 | -70.12612 | 2000 ft | 261 kts | 35° |
| 2026-04-21 17:37 | 76.40213 | -70.08425 | 2000 ft | 261 kts | 35° |
| 2026-04-21 17:37 | 76.41226 | -70.05646 | 2001 ft | 261 kts | 35° |
| 2026-04-21 17:37 | 76.43252 | -70.00063 | 2002 ft | 261 kts | 36° |
| 2026-04-21 17:38 | 76.44778 | -69.95855 | 1973 ft | 261 kts | 38° |
| 2026-04-21 17:38 | 76.46310 | -69.91612 | 1970 ft | 262 kts | 38° |
| 2026-04-21 17:38 | 76.47841 | -69.87357 | 1977 ft | 262 kts | 38° |
| 2026-04-21 17:38 | 76.49306 | -69.83061 | 1962 ft | 246 kts | 46° |
| 2026-04-21 17:39 | 76.50347 | -69.77746 | 1961 ft | 221 kts | 69° |
| 2026-04-21 17:39 | 76.50776 | -69.71980 | 1953 ft | 192 kts | 88° |
| 2026-04-21 17:39 | 76.50942 | -69.66726 | 1981 ft | 163 kts | 91° |
| 2026-04-21 17:39 | 76.51058 | -69.62142 | 1966 ft | 147 kts | 94° |
| 2026-04-21 17:40 | 76.51155 | -69.57880 | 1983 ft | 143 kts | 96° |
| 2026-04-21 17:40 | 76.51247 | -69.53615 | 1972 ft | 143 kts | 94° |
| 2026-04-21 17:40 | 76.51343 | -69.49344 | 1973 ft | 144 kts | 93° |
| 2026-04-21 17:40 | 76.51442 | -69.45056 | 1981 ft | 145 kts | 95° |
| 2026-04-21 17:41 | 76.51540 | -69.40803 | 1977 ft | 145 kts | 94° |
| 2026-04-21 17:41 | 76.51640 | -69.36491 | 1958 ft | 145 kts | 94° |
| 2026-04-21 17:41 | 76.51741 | -69.32203 | 1955 ft | 144 kts | 94° |
| 2026-04-21 17:41 | 76.51842 | -69.27909 | 1956 ft | 145 kts | 94° |
| 2026-04-21 17:42 | 76.51942 | -69.23676 | 1960 ft | 145 kts | 95° |
| 2026-04-21 17:42 | 76.52040 | -69.19359 | 1949 ft | 144 kts | 94° |
| 2026-04-21 17:42 | 76.52138 | -69.15076 | 1948 ft | 144 kts | 93° |
| 2026-04-21 17:42 | 76.52236 | -69.10801 | 1988 ft | 144 kts | 94° |
| 2026-04-21 17:43 | 76.52334 | -69.06522 | 1982 ft | 144 kts | 95° |
| 2026-04-21 17:43 | 76.52429 | -69.02191 | 1760 ft | 145 kts | 95° |
| 2026-04-21 17:43 | 76.52524 | -68.97896 | 1474 ft | 144 kts | 94° |
| 2026-04-21 17:43 | 76.52618 | -68.93646 | 1166 ft | 143 kts | 93° |
| 2026-04-21 17:44 | 76.52710 | -68.89435 | 865 ft | 141 kts | 95° |
| 2026-04-21 17:44 | 76.52799 | -68.85329 | 606 ft | 140 kts | 95° |
| 2026-04-21 17:44 | 76.52884 | -68.80930 | 453 ft | 151 kts | 94° |
| 2026-04-21 17:44 | 76.53001 | -68.76661 | 265 ft | 139 kts | 95° |
| 2026-04-21 17:45 | 76.53144 | -68.72301 | 544 ft | 158 kts | 81° |
| 2026-04-21 17:45 | 76.53688 | -68.67951 | 1113 ft | 168 kts | 71° |
| 2026-04-21 17:45 | 76.53809 | -68.63341 | 1746 ft | 152 kts | 115° |
| 2026-04-21 17:45 | 76.53199 | -68.59679 | 2238 ft | 158 kts | 137° |
| 2026-04-21 17:46 | 76.52302 | -68.56483 | 2670 ft | 174 kts | 143° |
| 2026-04-21 17:46 | 76.51173 | -68.53995 | 2961 ft | 194 kts | 167° |
| 2026-04-21 17:46 | 76.49810 | -68.54599 | 3001 ft | 207 kts | 200° |
| 2026-04-21 17:46 | 76.48662 | -68.58448 | 3011 ft | 218 kts | 221° |
| 2026-04-21 17:47 | 76.47704 | -68.63618 | 2999 ft | 223 kts | 230° |
| 2026-04-21 17:47 | 76.46879 | -68.69278 | 2996 ft | 228 kts | 238° |
| 2026-04-21 17:47 | 76.46406 | -68.75876 | 3001 ft | 234 kts | 250° |
| 2026-04-21 17:47 | 76.46075 | -68.82716 | 3000 ft | 235 kts | 253° |
| 2026-04-21 17:48 | 76.45870 | -68.87258 | 3002 ft | 236 kts | 253° |
| 2026-04-21 17:48 | 76.45426 | -68.96378 | 3018 ft | 233 kts | 252° |
| 2026-04-21 17:48 | 76.45106 | -69.03001 | 3002 ft | 228 kts | 253° |
| 2026-04-21 17:48 | 76.44790 | -69.09605 | 2990 ft | 228 kts | 251° |
| 2026-04-21 17:49 | 76.44489 | -69.16251 | 2997 ft | 228 kts | 252° |
| 2026-04-21 17:49 | 76.44183 | -69.22891 | 3008 ft | 228 kts | 252° |
| 2026-04-21 17:49 | 76.43868 | -69.29519 | 2995 ft | 228 kts | 253° |
| 2026-04-21 17:49 | 76.43552 | -69.36158 | 2970 ft | 229 kts | 253° |
| 2026-04-21 17:50 | 76.43223 | -69.42740 | 2722 ft | 225 kts | 250° |
| 2026-04-21 17:50 | 76.43062 | -69.49376 | 2438 ft | 227 kts | 268° |
| 2026-04-21 17:50 | 76.43484 | -69.55815 | 2147 ft | 235 kts | 300° |
| 2026-04-21 17:50 | 76.44621 | -69.60727 | 2030 ft | 230 kts | 322° |
| 2026-04-21 17:51 | 76.46001 | -69.63912 | 2017 ft | 221 kts | 342° |
| 2026-04-21 17:51 | 76.47415 | -69.64583 | 2015 ft | 191 kts | 13° |
| 2026-04-21 17:51 | 76.48520 | -69.62532 | 1971 ft | 156 kts | 50° |
| 2026-04-21 17:51 | 76.49034 | -69.58961 | 2004 ft | 141 kts | 81° |
| 2026-04-21 17:52 | 76.49336 | -69.54873 | 2027 ft | 147 kts | 84° |
| 2026-04-21 17:52 | 76.49627 | -69.50655 | 2000 ft | 147 kts | 84° |
| 2026-04-21 17:52 | 76.49913 | -69.46438 | 2000 ft | 147 kts | 83° |
| 2026-04-21 17:52 | 76.50195 | -69.42231 | 2001 ft | 147 kts | 83° |
| 2026-04-21 17:53 | 76.50474 | -69.38007 | 2000 ft | 148 kts | 85° |
| 2026-04-21 17:53 | 76.50776 | -69.33780 | 1971 ft | 150 kts | 79° |
| 2026-04-21 17:53 | 76.51200 | -69.29744 | 1969 ft | 150 kts | 75° |
| 2026-04-21 17:53 | 76.51659 | -69.25749 | 1969 ft | 149 kts | 73° |
| 2026-04-21 17:54 | 76.52090 | -69.21749 | 1962 ft | 144 kts | 86° |
| 2026-04-21 17:54 | 76.52263 | -69.17534 | 1970 ft | 150 kts | 78° |
| 2026-04-21 17:54 | 76.52819 | -69.13663 | 1944 ft | 148 kts | 74° |
| 2026-04-21 17:54 | 76.53178 | -69.09642 | 1903 ft | 148 kts | 82° |
| 2026-04-21 17:55 | 76.53491 | -69.05441 | 1648 ft | 145 kts | 87° |
| 2026-04-21 17:55 | 76.53630 | -69.01206 | 1440 ft | 142 kts | 95° |
| 2026-04-21 17:55 | 76.53630 | -68.96979 | 1216 ft | 141 kts | 100° |
| 2026-04-21 17:55 | 76.53590 | -68.92800 | 967 ft | 140 kts | 102° |
| 2026-04-21 17:56 | 76.53543 | -68.88647 | 809 ft | 139 kts | 102° |
| 2026-04-21 17:56 | 76.53491 | -68.84496 | 678 ft | 140 kts | 102° |
| 2026-04-21 17:56 | 76.53448 | -68.80353 | 624 ft | 139 kts | 102° |
| 2026-04-21 17:56 | 76.53275 | -68.76337 | 786 ft | 141 kts | 118° |
| 2026-04-21 17:57 | 76.52604 | -68.73211 | 1092 ft | 154 kts | 151° |
| 2026-04-21 17:57 | 76.51600 | -68.72112 | 1738 ft | 145 kts | 171° |
| 2026-04-21 17:57 | 76.50600 | -68.72160 | 2334 ft | 147 kts | 178° |
| 2026-04-21 17:57 | 76.49547 | -68.72546 | 2782 ft | 155 kts | 180° |
| 2026-04-21 17:58 | 76.48436 | -68.72978 | 3231 ft | 166 kts | 180° |
| 2026-04-21 17:58 | 76.47648 | -68.73202 | 3486 ft | 177 kts | 180° |
| 2026-04-21 17:58 | 76.45863 | -68.73549 | 3902 ft | 210 kts | 181° |
| 2026-04-21 17:58 | 76.44355 | -68.73828 | 3973 ft | 219 kts | 185° |
| 2026-04-21 17:59 | 76.42883 | -68.75514 | 3977 ft | 221 kts | 201° |
| 2026-04-21 17:59 | 76.41535 | -68.78688 | 3973 ft | 220 kts | 207° |
| 2026-04-21 17:59 | 76.40672 | -68.80903 | 3958 ft | 218 kts | 208° |
| 2026-04-21 17:59 | 76.38945 | -68.85393 | 3979 ft | 215 kts | 207° |
| 2026-04-21 18:00 | 76.38106 | -68.87627 | 3956 ft | 213 kts | 207° |
| 2026-04-21 18:00 | 76.36835 | -68.90962 | 3999 ft | 215 kts | 207° |
| 2026-04-21 18:00 | 76.35566 | -68.94255 | 4012 ft | 218 kts | 208° |
| 2026-04-21 18:00 | 76.34247 | -68.97576 | 3723 ft | 229 kts | 212° |
| 2026-04-21 18:01 | 76.33077 | -69.02312 | 3967 ft | 237 kts | 239° |
| 2026-04-21 18:01 | 76.32375 | -69.08717 | 4097 ft | 242 kts | 250° |
| 2026-04-21 18:01 | 76.31823 | -69.15351 | 4101 ft | 242 kts | 253° |
| 2026-04-21 18:01 | 76.31566 | -69.22351 | 4103 ft | 241 kts | 272° |
| 2026-04-21 18:02 | 76.31790 | -69.29347 | 4099 ft | 241 kts | 285° |
| 2026-04-21 18:02 | 76.32464 | -69.35772 | 4111 ft | 238 kts | 306° |
| 2026-04-21 18:02 | 76.33713 | -69.40233 | 4100 ft | 237 kts | 336° |
| 2026-04-21 18:02 | 76.35307 | -69.41217 | 4085 ft | 239 kts | 9° |
| 2026-04-21 18:03 | 76.36933 | -69.39529 | 3832 ft | 242 kts | 10° |
| 2026-04-21 18:03 | 76.38619 | -69.39226 | 3470 ft | 245 kts | 355° |
| 2026-04-21 18:03 | 76.40330 | -69.39959 | 3103 ft | 248 kts | 353° |
| 2026-04-21 18:03 | 76.42053 | -69.40841 | 2735 ft | 251 kts | 352° |
| 2026-04-21 18:04 | 76.43790 | -69.41760 | 2472 ft | 249 kts | 352° |
| 2026-04-21 18:04 | 76.45471 | -69.42282 | 2325 ft | 241 kts | 2° |
| 2026-04-21 18:04 | 76.47088 | -69.40850 | 2189 ft | 235 kts | 24° |
| 2026-04-21 18:04 | 76.48362 | -69.36647 | 2061 ft | 232 kts | 50° |
| 2026-04-21 18:05 | 76.49303 | -69.31019 | 2002 ft | 232 kts | 57° |
| 2026-04-21 18:05 | 76.50135 | -69.25404 | 1988 ft | 217 kts | 58° |
| 2026-04-21 18:05 | 76.50889 | -69.20198 | 1995 ft | 193 kts | 58° |
| 2026-04-21 18:05 | 76.51549 | -69.15631 | 1995 ft | 169 kts | 58° |
| 2026-04-21 18:06 | 76.52085 | -69.11551 | 1982 ft | 149 kts | 67° |
| 2026-04-21 18:06 | 76.52363 | -69.07301 | 1728 ft | 149 kts | 83° |
| 2026-04-21 18:06 | 76.52441 | -69.02928 | 1521 ft | 146 kts | 87° |
| 2026-04-21 18:06 | 76.52519 | -68.98581 | 1317 ft | 145 kts | 84° |
| 2026-04-21 18:07 | 76.52612 | -68.94253 | 1105 ft | 146 kts | 85° |
| 2026-04-21 18:07 | 76.52690 | -68.89920 | 851 ft | 145 kts | 83° |
| 2026-04-21 18:07 | 76.52810 | -68.85695 | 647 ft | 144 kts | 85° |
| 2026-04-21 18:07 | 76.52882 | -68.81422 | 467 ft | 143 kts | 86° |
| 2026-04-21 18:08 | 76.52976 | -68.77141 | 278 ft | 144 kts | 85° |
| 2026-04-21 18:08 | 76.53059 | -68.73019 | 210 ft | 120 kts | 85° |
| 2026-04-21 18:08 | 76.53109 | -68.70612 | 222 ft | 58 kts | 85° |
| 2026-04-21 18:08 | 76.53134 | -68.69411 | 231 ft | 13 kts | 85° |
| 2026-04-21 18:09 | 76.53142 | -68.69007 | 315 ft | 13 kts | 85° |
| 2026-04-21 18:09 | 76.53173 | -68.68668 | 315 ft | 12 kts | 37° |
| 2026-04-21 18:09 | 76.53259 | -68.68566 | 317 ft | 12 kts | 10° |
| 2026-04-21 18:09 | 76.53324 | -68.68517 | 321 ft | 8 kts | 10° |
| 2026-04-21 18:10 | 76.53366 | -68.68617 | 321 ft | 8 kts | 299° |
| 2026-04-21 18:10 | 76.53379 | -68.68968 | 319 ft | 19 kts | 279° |
| 2026-04-21 18:10 | 76.53411 | -68.69666 | 309 ft | 28 kts | 281° |
| 2026-04-21 18:10 | 76.53449 | -68.70525 | 312 ft | 30 kts | 280° |
| 2026-04-21 18:11 | 76.53477 | -68.71399 | 309 ft | 30 kts | 270° |
| 2026-04-21 18:11 | 76.53420 | -68.72270 | 307 ft | 30 kts | 249° |
| 2026-04-21 18:11 | 76.53374 | -68.72910 | 305 ft | 9 kts | 284° |
| 2026-04-21 18:11 | 76.53421 | -68.73147 | 305 ft | 12 kts | 299° |
| 2026-04-21 18:12 | 76.53408 | -68.73444 | 302 ft | 0 kts | 249° |